リヴァプール の空港の天気 - METARとTAF

リバプール・ジョン・レノン空港 ( EGGP / LPL ) - イギリス リヴァプール
飛行場実況気象(Metar)
観測時間11/24 17:20 GMT (11/24 17:20 UTC)
風向・風速南南東 7m/s
視程10km以上
天気現象
少しの雲 雲底高度 1010m
全天の4割程度の雲 雲底高度 1400m
気温12℃
湿度77%
気圧1007hPa
METAREGGP 241720Z 16014KT 9999 FEW033 SCT046 12/08 Q1007
過去の天気等 Google飛行場航空写真 Wunderground天気予報

過去48時間のMETAR

飛行場予報(TAF)
発表時間: 11/24 16:55 GMT (11/24 16:55 UTC)
予報対象時間: 24日18時 GMT ~ 25日18時 GMT
風向・風速南南東 7m/s
視程10km以上
全天の4割程度の雲 雲底高度 1370m
24日18時 GMT ~ 24日23時 GMT に 確率 30% で一時的に
全天の8割程度の雲 雲底高度 430m
24日22時 GMT ~ 25日1時 GMT に徐々に
風向・風速西北西 3m/s
24日23時 GMT ~ 25日7時 GMT に一時的に
視程8000m
天気現象弱い雨
全天の8割程度の雲 雲底高度 240m
24日23時 GMT ~ 25日5時 GMT に 確率 30% で一時的に
天気現象
全天の8割程度の雲 雲底高度 120m
TAF EGGP 241655Z 2418/2518 16014KT 9999 SCT045
PROB30 TEMPO 2418/2423 BKN014
BECMG 2422/2501 30006KT
TEMPO 2423/2507 8000 -RA BKN008
PROB30 TEMPO 2423/2505 RA BKN004